sensor_id;sensor_type;location;lat;lon;timestamp;P1;durP1;ratioP1;P2;durP2;ratioP2
70549;SDS011;58101;48.658;2.328;2023-03-25T00:01:58;11.60;;;1.85;;
70549;SDS011;58101;48.658;2.328;2023-03-25T00:04:24;11.88;;;1.50;;
70549;SDS011;58101;48.658;2.328;2023-03-25T00:06:53;16.08;;;1.80;;
70549;SDS011;58101;48.658;2.328;2023-03-25T00:09:20;17.17;;;1.63;;
70549;SDS011;58101;48.658;2.328;2023-03-25T00:11:45;12.85;;;1.85;;
70549;SDS011;58101;48.658;2.328;2023-03-25T00:14:14;11.75;;;1.55;;
70549;SDS011;58101;48.658;2.328;2023-03-25T00:16:41;13.68;;;1.75;;
70549;SDS011;58101;48.658;2.328;2023-03-25T00:19:09;16.88;;;1.83;;
70549;SDS011;58101;48.658;2.328;2023-03-25T00:21:35;12.02;;;2.03;;
70549;SDS011;58101;48.658;2.328;2023-03-25T00:24:01;13.52;;;1.67;;
70549;SDS011;58101;48.658;2.328;2023-03-25T00:26:27;10.05;;;1.30;;
70549;SDS011;58101;48.658;2.328;2023-03-25T00:28:54;10.75;;;1.75;;
70549;SDS011;58101;48.658;2.328;2023-03-25T00:31:20;11.70;;;1.45;;
70549;SDS011;58101;48.658;2.328;2023-03-25T00:33:45;12.40;;;1.38;;
70549;SDS011;58101;48.658;2.328;2023-03-25T00:36:11;7.78;;;1.58;;
70549;SDS011;58101;48.658;2.328;2023-03-25T00:38:38;9.98;;;1.33;;
70549;SDS011;58101;48.658;2.328;2023-03-25T00:41:25;10.95;;;1.35;;
70549;SDS011;58101;48.658;2.328;2023-03-25T00:43:53;15.48;;;2.25;;
70549;SDS011;58101;48.658;2.328;2023-03-25T00:46:21;12.35;;;1.42;;
70549;SDS011;58101;48.658;2.328;2023-03-25T00:48:48;10.45;;;1.42;;
70549;SDS011;58101;48.658;2.328;2023-03-25T00:51:14;9.40;;;1.25;;
70549;SDS011;58101;48.658;2.328;2023-03-25T00:53:43;11.95;;;1.48;;
70549;SDS011;58101;48.658;2.328;2023-03-25T00:56:09;13.23;;;1.90;;
70549;SDS011;58101;48.658;2.328;2023-03-25T00:58:36;10.25;;;1.52;;
70549;SDS011;58101;48.658;2.328;2023-03-25T01:01:12;11.48;;;1.48;;
70549;SDS011;58101;48.658;2.328;2023-03-25T01:03:40;11.68;;;1.73;;
70549;SDS011;58101;48.658;2.328;2023-03-25T01:08:36;15.75;;;1.80;;
70549;SDS011;58101;48.658;2.328;2023-03-25T01:11:02;9.52;;;1.48;;
70549;SDS011;58101;48.658;2.328;2023-03-25T01:13:28;12.60;;;1.52;;
70549;SDS011;58101;48.658;2.328;2023-03-25T01:15:54;11.27;;;1.60;;
70549;SDS011;58101;48.658;2.328;2023-03-25T01:18:20;12.02;;;1.60;;
70549;SDS011;58101;48.658;2.328;2023-03-25T01:20:45;11.10;;;1.58;;
70549;SDS011;58101;48.658;2.328;2023-03-25T01:23:11;11.35;;;1.73;;
70549;SDS011;58101;48.658;2.328;2023-03-25T01:25:37;15.48;;;1.80;;
70549;SDS011;58101;48.658;2.328;2023-03-25T01:28:03;11.77;;;1.73;;
70549;SDS011;58101;48.658;2.328;2023-03-25T01:30:29;13.07;;;1.48;;
70549;SDS011;58101;48.658;2.328;2023-03-25T01:32:55;12.27;;;1.67;;
70549;SDS011;58101;48.658;2.328;2023-03-25T01:35:21;11.48;;;1.50;;
70549;SDS011;58101;48.658;2.328;2023-03-25T01:37:46;14.82;;;2.60;;
70549;SDS011;58101;48.658;2.328;2023-03-25T01:40:17;13.68;;;2.05;;
70549;SDS011;58101;48.658;2.328;2023-03-25T01:42:44;18.42;;;2.30;;
70549;SDS011;58101;48.658;2.328;2023-03-25T01:45:20;11.60;;;1.55;;
70549;SDS011;58101;48.658;2.328;2023-03-25T01:47:57;14.80;;;1.60;;
70549;SDS011;58101;48.658;2.328;2023-03-25T01:50:36;16.40;;;1.98;;
70549;SDS011;58101;48.658;2.328;2023-03-25T01:53:05;14.15;;;2.40;;
70549;SDS011;58101;48.658;2.328;2023-03-25T01:55:33;8.85;;;1.30;;
70549;SDS011;58101;48.658;2.328;2023-03-25T01:58:01;14.00;;;2.05;;
70549;SDS011;58101;48.658;2.328;2023-03-25T02:00:34;14.27;;;1.50;;
70549;SDS011;58101;48.658;2.328;2023-03-25T02:03:03;11.98;;;1.65;;
70549;SDS011;58101;48.658;2.328;2023-03-25T02:05:33;11.38;;;1.40;;
70549;SDS011;58101;48.658;2.328;2023-03-25T02:08:17;14.25;;;1.88;;
70549;SDS011;58101;48.658;2.328;2023-03-25T02:10:44;12.70;;;1.80;;
70549;SDS011;58101;48.658;2.328;2023-03-25T02:13:11;16.38;;;2.17;;
70549;SDS011;58101;48.658;2.328;2023-03-25T02:15:47;17.95;;;1.95;;
70549;SDS011;58101;48.658;2.328;2023-03-25T02:18:33;11.88;;;1.70;;
70549;SDS011;58101;48.658;2.328;2023-03-25T02:29:09;14.60;;;1.75;;
70549;SDS011;58101;48.658;2.328;2023-03-25T02:32:11;14.82;;;1.75;;
70549;SDS011;58101;48.658;2.328;2023-03-25T02:35:13;17.92;;;2.00;;
70549;SDS011;58101;48.658;2.328;2023-03-25T02:40:37;14.10;;;1.70;;
70549;SDS011;58101;48.658;2.328;2023-03-25T02:46:10;14.30;;;1.55;;
70549;SDS011;58101;48.658;2.328;2023-03-25T02:51:21;16.25;;;1.90;;
70549;SDS011;58101;48.658;2.328;2023-03-25T02:53:53;14.02;;;1.80;;
70549;SDS011;58101;48.658;2.328;2023-03-25T02:56:20;12.52;;;1.60;;
70549;SDS011;58101;48.658;2.328;2023-03-25T02:58:49;15.32;;;1.90;;
70549;SDS011;58101;48.658;2.328;2023-03-25T03:01:19;13.05;;;1.70;;
70549;SDS011;58101;48.658;2.328;2023-03-25T03:03:46;18.63;;;1.90;;
70549;SDS011;58101;48.658;2.328;2023-03-25T03:06:15;10.93;;;1.77;;
70549;SDS011;58101;48.658;2.328;2023-03-25T03:21:55;15.55;;;1.70;;
70549;SDS011;58101;48.658;2.328;2023-03-25T03:24:26;18.08;;;1.98;;
70549;SDS011;58101;48.658;2.328;2023-03-25T03:27:10;13.73;;;1.55;;
70549;SDS011;58101;48.658;2.328;2023-03-25T03:29:56;18.90;;;1.92;;
70549;SDS011;58101;48.658;2.328;2023-03-25T03:32:43;13.77;;;1.85;;
70549;SDS011;58101;48.658;2.328;2023-03-25T03:35:33;15.50;;;1.90;;
70549;SDS011;58101;48.658;2.328;2023-03-25T03:38:03;13.85;;;2.17;;
70549;SDS011;58101;48.658;2.328;2023-03-25T03:40:36;18.98;;;1.92;;
70549;SDS011;58101;48.658;2.328;2023-03-25T03:43:06;12.60;;;1.10;;
70549;SDS011;58101;48.658;2.328;2023-03-25T03:45:38;13.05;;;1.58;;
70549;SDS011;58101;48.658;2.328;2023-03-25T03:48:14;9.65;;;1.60;;
70549;SDS011;58101;48.658;2.328;2023-03-25T03:50:54;14.20;;;1.67;;
70549;SDS011;58101;48.658;2.328;2023-03-25T03:53:31;7.43;;;1.27;;
70549;SDS011;58101;48.658;2.328;2023-03-25T03:56:44;9.00;;;1.27;;
70549;SDS011;58101;48.658;2.328;2023-03-25T04:02:23;9.73;;;1.13;;
70549;SDS011;58101;48.658;2.328;2023-03-25T04:04:51;13.00;;;1.33;;
70549;SDS011;58101;48.658;2.328;2023-03-25T04:07:31;7.75;;;1.35;;
70549;SDS011;58101;48.658;2.328;2023-03-25T04:12:53;10.98;;;1.63;;
70549;SDS011;58101;48.658;2.328;2023-03-25T04:15:22;12.65;;;1.50;;
70549;SDS011;58101;48.658;2.328;2023-03-25T04:17:48;11.77;;;1.40;;
70549;SDS011;58101;48.658;2.328;2023-03-25T04:20:14;9.40;;;1.45;;
70549;SDS011;58101;48.658;2.328;2023-03-25T04:22:47;9.68;;;1.10;;
70549;SDS011;58101;48.658;2.328;2023-03-25T04:25:15;8.65;;;1.13;;
70549;SDS011;58101;48.658;2.328;2023-03-25T04:27:41;8.73;;;1.30;;
70549;SDS011;58101;48.658;2.328;2023-03-25T04:30:09;13.98;;;2.15;;
70549;SDS011;58101;48.658;2.328;2023-03-25T04:32:35;11.13;;;1.50;;
70549;SDS011;58101;48.658;2.328;2023-03-25T04:35:01;9.20;;;1.55;;
70549;SDS011;58101;48.658;2.328;2023-03-25T04:37:27;13.07;;;1.65;;
70549;SDS011;58101;48.658;2.328;2023-03-25T04:39:53;15.13;;;1.63;;
70549;SDS011;58101;48.658;2.328;2023-03-25T04:42:24;10.45;;;1.85;;
70549;SDS011;58101;48.658;2.328;2023-03-25T04:44:56;7.38;;;1.05;;
70549;SDS011;58101;48.658;2.328;2023-03-25T04:47:25;12.63;;;1.55;;
70549;SDS011;58101;48.658;2.328;2023-03-25T04:49:51;16.08;;;1.70;;
70549;SDS011;58101;48.658;2.328;2023-03-25T04:52:17;7.13;;;1.20;;
70549;SDS011;58101;48.658;2.328;2023-03-25T04:54:42;9.98;;;1.33;;
70549;SDS011;58101;48.658;2.328;2023-03-25T04:57:11;9.95;;;1.25;;
70549;SDS011;58101;48.658;2.328;2023-03-25T04:59:37;10.43;;;1.45;;
70549;SDS011;58101;48.658;2.328;2023-03-25T05:02:03;10.10;;;1.30;;
70549;SDS011;58101;48.658;2.328;2023-03-25T05:06:55;10.88;;;1.25;;
70549;SDS011;58101;48.658;2.328;2023-03-25T05:09:21;9.15;;;1.70;;
70549;SDS011;58101;48.658;2.328;2023-03-25T05:11:47;7.72;;;1.30;;
70549;SDS011;58101;48.658;2.328;2023-03-25T05:14:16;10.27;;;1.13;;
70549;SDS011;58101;48.658;2.328;2023-03-25T05:16:43;10.85;;;1.20;;
70549;SDS011;58101;48.658;2.328;2023-03-25T05:19:09;8.52;;;1.33;;
70549;SDS011;58101;48.658;2.328;2023-03-25T05:21:36;12.15;;;1.45;;
70549;SDS011;58101;48.658;2.328;2023-03-25T05:24:05;11.00;;;1.58;;
70549;SDS011;58101;48.658;2.328;2023-03-25T05:26:38;7.82;;;1.27;;
70549;SDS011;58101;48.658;2.328;2023-03-25T05:29:14;9.65;;;1.20;;
70549;SDS011;58101;48.658;2.328;2023-03-25T05:31:40;9.15;;;1.40;;
70549;SDS011;58101;48.658;2.328;2023-03-25T05:34:08;10.02;;;1.42;;
70549;SDS011;58101;48.658;2.328;2023-03-25T05:36:34;11.25;;;1.30;;
70549;SDS011;58101;48.658;2.328;2023-03-25T05:38:59;8.68;;;1.20;;
70549;SDS011;58101;48.658;2.328;2023-03-25T05:41:26;8.95;;;1.40;;
70549;SDS011;58101;48.658;2.328;2023-03-25T05:44:03;9.77;;;1.40;;
70549;SDS011;58101;48.658;2.328;2023-03-25T05:48:55;11.68;;;1.38;;
70549;SDS011;58101;48.658;2.328;2023-03-25T05:51:21;9.23;;;1.20;;
70549;SDS011;58101;48.658;2.328;2023-03-25T05:53:49;7.18;;;1.00;;
70549;SDS011;58101;48.658;2.328;2023-03-25T05:56:15;5.95;;;1.00;;
70549;SDS011;58101;48.658;2.328;2023-03-25T05:58:44;10.23;;;1.33;;
70549;SDS011;58101;48.658;2.328;2023-03-25T06:01:11;8.98;;;1.40;;
70549;SDS011;58101;48.658;2.328;2023-03-25T06:03:40;11.40;;;1.33;;
70549;SDS011;58101;48.658;2.328;2023-03-25T06:08:41;10.60;;;1.27;;
70549;SDS011;58101;48.658;2.328;2023-03-25T06:11:08;12.18;;;1.42;;
70549;SDS011;58101;48.658;2.328;2023-03-25T06:13:34;11.77;;;1.48;;
70549;SDS011;58101;48.658;2.328;2023-03-25T06:16:04;12.90;;;1.67;;
70549;SDS011;58101;48.658;2.328;2023-03-25T06:18:30;14.23;;;1.60;;
70549;SDS011;58101;48.658;2.328;2023-03-25T06:20:57;9.02;;;1.48;;
70549;SDS011;58101;48.658;2.328;2023-03-25T06:23:23;11.80;;;1.70;;
70549;SDS011;58101;48.658;2.328;2023-03-25T06:25:50;10.82;;;1.60;;
70549;SDS011;58101;48.658;2.328;2023-03-25T06:28:16;12.73;;;1.40;;
70549;SDS011;58101;48.658;2.328;2023-03-25T06:30:43;11.52;;;1.40;;
70549;SDS011;58101;48.658;2.328;2023-03-25T06:33:10;10.10;;;1.42;;
70549;SDS011;58101;48.658;2.328;2023-03-25T06:35:37;12.68;;;1.45;;
70549;SDS011;58101;48.658;2.328;2023-03-25T06:38:07;11.85;;;1.15;;
70549;SDS011;58101;48.658;2.328;2023-03-25T06:40:37;10.93;;;1.40;;
70549;SDS011;58101;48.658;2.328;2023-03-25T06:43:03;10.50;;;1.58;;
70549;SDS011;58101;48.658;2.328;2023-03-25T06:45:29;10.35;;;1.40;;
70549;SDS011;58101;48.658;2.328;2023-03-25T06:47:55;12.98;;;1.40;;
70549;SDS011;58101;48.658;2.328;2023-03-25T06:50:21;12.70;;;1.52;;
70549;SDS011;58101;48.658;2.328;2023-03-25T06:52:47;9.48;;;1.73;;
70549;SDS011;58101;48.658;2.328;2023-03-25T06:55:14;10.35;;;1.75;;
70549;SDS011;58101;48.658;2.328;2023-03-25T06:57:40;12.82;;;1.58;;
70549;SDS011;58101;48.658;2.328;2023-03-25T07:00:06;12.98;;;1.83;;
70549;SDS011;58101;48.658;2.328;2023-03-25T07:02:33;11.57;;;1.58;;
70549;SDS011;58101;48.658;2.328;2023-03-25T07:04:58;13.73;;;1.88;;
70549;SDS011;58101;48.658;2.328;2023-03-25T07:07:24;11.38;;;1.40;;
70549;SDS011;58101;48.658;2.328;2023-03-25T07:09:51;14.45;;;1.73;;
70549;SDS011;58101;48.658;2.328;2023-03-25T07:12:32;8.25;;;1.30;;
70549;SDS011;58101;48.658;2.328;2023-03-25T07:15:41;13.45;;;1.52;;
70549;SDS011;58101;48.658;2.328;2023-03-25T07:18:07;8.18;;;1.20;;
70549;SDS011;58101;48.658;2.328;2023-03-25T07:20:33;8.98;;;1.20;;
70549;SDS011;58101;48.658;2.328;2023-03-25T07:22:58;16.42;;;1.90;;
70549;SDS011;58101;48.658;2.328;2023-03-25T07:25:24;12.98;;;1.42;;
70549;SDS011;58101;48.658;2.328;2023-03-25T07:30:43;11.35;;;1.52;;
70549;SDS011;58101;48.658;2.328;2023-03-25T07:36:20;11.65;;;1.55;;
70549;SDS011;58101;48.658;2.328;2023-03-25T07:38:47;10.77;;;1.52;;
70549;SDS011;58101;48.658;2.328;2023-03-25T07:41:13;9.52;;;1.42;;
70549;SDS011;58101;48.658;2.328;2023-03-25T07:43:39;10.95;;;1.35;;
70549;SDS011;58101;48.658;2.328;2023-03-25T07:46:05;12.75;;;1.67;;
70549;SDS011;58101;48.658;2.328;2023-03-25T07:48:31;11.23;;;1.38;;
70549;SDS011;58101;48.658;2.328;2023-03-25T07:50:57;11.80;;;1.50;;
70549;SDS011;58101;48.658;2.328;2023-03-25T07:53:23;10.93;;;1.45;;
70549;SDS011;58101;48.658;2.328;2023-03-25T07:55:48;13.20;;;1.60;;
70549;SDS011;58101;48.658;2.328;2023-03-25T07:58:15;9.55;;;1.67;;
70549;SDS011;58101;48.658;2.328;2023-03-25T08:00:42;15.10;;;1.60;;
70549;SDS011;58101;48.658;2.328;2023-03-25T08:03:33;10.82;;;1.67;;
70549;SDS011;58101;48.658;2.328;2023-03-25T08:06:00;14.93;;;1.33;;
70549;SDS011;58101;48.658;2.328;2023-03-25T08:08:26;11.40;;;1.40;;
70549;SDS011;58101;48.658;2.328;2023-03-25T08:10:55;11.02;;;1.38;;
70549;SDS011;58101;48.658;2.328;2023-03-25T08:13:21;12.15;;;1.33;;
70549;SDS011;58101;48.658;2.328;2023-03-25T08:15:47;8.95;;;1.30;;
70549;SDS011;58101;48.658;2.328;2023-03-25T08:18:12;11.70;;;1.30;;
70549;SDS011;58101;48.658;2.328;2023-03-25T08:20:38;11.20;;;1.83;;
70549;SDS011;58101;48.658;2.328;2023-03-25T08:23:05;11.30;;;1.42;;
70549;SDS011;58101;48.658;2.328;2023-03-25T08:25:35;10.05;;;1.70;;
70549;SDS011;58101;48.658;2.328;2023-03-25T08:28:02;11.07;;;1.80;;
70549;SDS011;58101;48.658;2.328;2023-03-25T08:30:28;15.27;;;2.08;;
70549;SDS011;58101;48.658;2.328;2023-03-25T08:32:54;16.25;;;1.60;;
70549;SDS011;58101;48.658;2.328;2023-03-25T08:35:20;11.48;;;1.20;;
70549;SDS011;58101;48.658;2.328;2023-03-25T08:37:47;13.40;;;1.70;;
70549;SDS011;58101;48.658;2.328;2023-03-25T08:40:13;9.07;;;1.38;;
70549;SDS011;58101;48.658;2.328;2023-03-25T08:42:41;11.85;;;1.80;;
70549;SDS011;58101;48.658;2.328;2023-03-25T08:47:52;12.10;;;1.60;;
70549;SDS011;58101;48.658;2.328;2023-03-25T08:50:18;8.90;;;1.75;;
70549;SDS011;58101;48.658;2.328;2023-03-25T08:52:44;14.52;;;1.80;;
70549;SDS011;58101;48.658;2.328;2023-03-25T08:55:11;11.55;;;1.80;;
70549;SDS011;58101;48.658;2.328;2023-03-25T08:57:40;12.32;;;1.50;;
70549;SDS011;58101;48.658;2.328;2023-03-25T09:00:07;13.13;;;1.60;;
70549;SDS011;58101;48.658;2.328;2023-03-25T09:02:39;13.82;;;1.38;;
70549;SDS011;58101;48.658;2.328;2023-03-25T09:08:22;11.35;;;1.40;;
70549;SDS011;58101;48.658;2.328;2023-03-25T09:13:32;11.43;;;1.70;;
70549;SDS011;58101;48.658;2.328;2023-03-25T09:15:57;11.15;;;1.73;;
70549;SDS011;58101;48.658;2.328;2023-03-25T09:18:23;12.00;;;1.48;;
70549;SDS011;58101;48.658;2.328;2023-03-25T09:20:49;9.82;;;1.52;;
70549;SDS011;58101;48.658;2.328;2023-03-25T09:23:15;8.45;;;1.40;;
70549;SDS011;58101;48.658;2.328;2023-03-25T09:25:41;10.90;;;1.85;;
70549;SDS011;58101;48.658;2.328;2023-03-25T09:28:08;13.88;;;1.92;;
70549;SDS011;58101;48.658;2.328;2023-03-25T09:30:34;10.57;;;1.65;;
70549;SDS011;58101;48.658;2.328;2023-03-25T09:32:59;11.52;;;1.60;;
70549;SDS011;58101;48.658;2.328;2023-03-25T09:35:25;11.15;;;1.45;;
70549;SDS011;58101;48.658;2.328;2023-03-25T09:37:51;11.65;;;1.67;;
70549;SDS011;58101;48.658;2.328;2023-03-25T09:40:17;11.05;;;1.60;;
70549;SDS011;58101;48.658;2.328;2023-03-25T09:45:55;11.98;;;1.42;;
70549;SDS011;58101;48.658;2.328;2023-03-25T09:48:38;11.10;;;1.60;;
70549;SDS011;58101;48.658;2.328;2023-03-25T09:51:30;9.98;;;1.38;;
70549;SDS011;58101;48.658;2.328;2023-03-25T09:56:35;12.73;;;1.40;;
70549;SDS011;58101;48.658;2.328;2023-03-25T09:59:05;11.10;;;1.35;;
70549;SDS011;58101;48.658;2.328;2023-03-25T10:10:03;14.45;;;1.50;;
70549;SDS011;58101;48.658;2.328;2023-03-25T10:18:00;11.05;;;1.58;;
70549;SDS011;58101;48.658;2.328;2023-03-25T10:20:39;11.57;;;1.45;;
70549;SDS011;58101;48.658;2.328;2023-03-25T10:29:02;14.13;;;1.40;;
70549;SDS011;58101;48.658;2.328;2023-03-25T10:31:33;10.40;;;1.30;;
70549;SDS011;58101;48.658;2.328;2023-03-25T10:34:04;9.98;;;1.50;;
70549;SDS011;58101;48.658;2.328;2023-03-25T10:39:42;8.00;;;1.30;;
70549;SDS011;58101;48.658;2.328;2023-03-25T10:45:31;10.23;;;1.40;;
70549;SDS011;58101;48.658;2.328;2023-03-25T10:50:44;9.90;;;1.30;;
70549;SDS011;58101;48.658;2.328;2023-03-25T10:53:22;13.55;;;1.63;;
70549;SDS011;58101;48.658;2.328;2023-03-25T10:58:39;11.75;;;1.33;;
70549;SDS011;58101;48.658;2.328;2023-03-25T11:01:11;7.93;;;1.20;;
70549;SDS011;58101;48.658;2.328;2023-03-25T11:03:39;8.85;;;1.42;;
70549;SDS011;58101;48.658;2.328;2023-03-25T11:06:06;11.18;;;1.55;;
70549;SDS011;58101;48.658;2.328;2023-03-25T11:08:54;10.60;;;1.90;;
70549;SDS011;58101;48.658;2.328;2023-03-25T11:11:39;10.10;;;1.40;;
70549;SDS011;58101;48.658;2.328;2023-03-25T11:14:06;10.60;;;1.30;;
70549;SDS011;58101;48.658;2.328;2023-03-25T11:16:33;11.23;;;1.50;;
70549;SDS011;58101;48.658;2.328;2023-03-25T11:19:11;11.02;;;2.03;;
70549;SDS011;58101;48.658;2.328;2023-03-25T11:24:46;12.25;;;1.83;;
70549;SDS011;58101;48.658;2.328;2023-03-25T11:27:24;9.55;;;1.40;;
70549;SDS011;58101;48.658;2.328;2023-03-25T11:30:02;9.95;;;1.38;;
70549;SDS011;58101;48.658;2.328;2023-03-25T11:32:32;11.68;;;1.58;;
70549;SDS011;58101;48.658;2.328;2023-03-25T11:35:01;11.30;;;1.50;;
70549;SDS011;58101;48.658;2.328;2023-03-25T11:37:53;11.15;;;1.52;;
70549;SDS011;58101;48.658;2.328;2023-03-25T11:40:23;9.13;;;1.30;;
70549;SDS011;58101;48.658;2.328;2023-03-25T11:42:52;9.48;;;1.70;;
70549;SDS011;58101;48.658;2.328;2023-03-25T11:49:08;9.15;;;1.20;;
70549;SDS011;58101;48.658;2.328;2023-03-25T11:51:35;14.05;;;1.45;;
70549;SDS011;58101;48.658;2.328;2023-03-25T11:54:02;11.10;;;1.55;;
70549;SDS011;58101;48.658;2.328;2023-03-25T12:09:32;14.68;;;1.75;;
70549;SDS011;58101;48.658;2.328;2023-03-25T12:20:16;11.23;;;1.65;;
70549;SDS011;58101;48.658;2.328;2023-03-25T12:23:02;9.05;;;1.33;;
70549;SDS011;58101;48.658;2.328;2023-03-25T12:25:46;10.95;;;1.52;;
70549;SDS011;58101;48.658;2.328;2023-03-25T12:39:48;10.32;;;1.60;;
70549;SDS011;58101;48.658;2.328;2023-03-25T12:42:33;10.38;;;1.38;;
70549;SDS011;58101;48.658;2.328;2023-03-25T12:53:49;8.23;;;1.70;;
70549;SDS011;58101;48.658;2.328;2023-03-25T13:04:42;12.55;;;1.65;;
70549;SDS011;58101;48.658;2.328;2023-03-25T13:08:00;10.50;;;1.48;;
70549;SDS011;58101;48.658;2.328;2023-03-25T13:10:34;12.70;;;1.98;;
70549;SDS011;58101;48.658;2.328;2023-03-25T13:13:11;8.77;;;1.30;;
70549;SDS011;58101;48.658;2.328;2023-03-25T13:15:44;14.68;;;1.58;;
70549;SDS011;58101;48.658;2.328;2023-03-25T13:18:14;10.02;;;1.45;;
70549;SDS011;58101;48.658;2.328;2023-03-25T13:21:23;12.15;;;1.67;;
70549;SDS011;58101;48.658;2.328;2023-03-25T13:39:14;11.32;;;1.60;;
70549;SDS011;58101;48.658;2.328;2023-03-25T13:41:49;11.05;;;1.65;;
70549;SDS011;58101;48.658;2.328;2023-03-25T13:44:25;9.88;;;1.60;;
70549;SDS011;58101;48.658;2.328;2023-03-25T13:46:57;9.93;;;1.50;;
70549;SDS011;58101;48.658;2.328;2023-03-25T13:52:02;9.95;;;1.33;;
70549;SDS011;58101;48.658;2.328;2023-03-25T13:54:32;8.45;;;1.33;;
70549;SDS011;58101;48.658;2.328;2023-03-25T13:59:42;11.60;;;1.30;;
70549;SDS011;58101;48.658;2.328;2023-03-25T18:07:29;12.57;;;3.22;;
70549;SDS011;58101;48.658;2.328;2023-03-25T18:13:16;25.05;;;8.10;;
70549;SDS011;58101;48.658;2.328;2023-03-25T18:15:45;19.10;;;4.80;;
70549;SDS011;58101;48.658;2.328;2023-03-25T18:18:16;16.60;;;4.22;;
70549;SDS011;58101;48.658;2.328;2023-03-25T18:20:48;19.80;;;3.60;;
70549;SDS011;58101;48.658;2.328;2023-03-25T18:23:14;21.17;;;5.53;;
70549;SDS011;58101;48.658;2.328;2023-03-25T18:25:40;20.95;;;5.53;;
70549;SDS011;58101;48.658;2.328;2023-03-25T18:30:52;24.50;;;10.80;;
70549;SDS011;58101;48.658;2.328;2023-03-25T18:33:19;29.30;;;15.30;;
70549;SDS011;58101;48.658;2.328;2023-03-25T18:35:45;26.30;;;11.30;;
70549;SDS011;58101;48.658;2.328;2023-03-25T18:38:25;16.75;;;6.40;;
70549;SDS011;58101;48.658;2.328;2023-03-25T18:40:52;20.13;;;4.80;;
70549;SDS011;58101;48.658;2.328;2023-03-25T18:43:19;19.70;;;3.33;;
70549;SDS011;58101;48.658;2.328;2023-03-25T18:49:12;12.68;;;4.07;;
70549;SDS011;58101;48.658;2.328;2023-03-25T18:51:42;20.05;;;4.32;;
70549;SDS011;58101;48.658;2.328;2023-03-25T18:54:08;20.52;;;4.00;;
70549;SDS011;58101;48.658;2.328;2023-03-25T18:56:35;9.30;;;2.80;;
70549;SDS011;58101;48.658;2.328;2023-03-25T18:59:01;21.70;;;6.03;;
70549;SDS011;58101;48.658;2.328;2023-03-25T19:01:27;19.60;;;5.68;;
70549;SDS011;58101;48.658;2.328;2023-03-25T19:03:53;21.60;;;6.20;;
70549;SDS011;58101;48.658;2.328;2023-03-25T19:10:01;14.73;;;3.65;;
70549;SDS011;58101;48.658;2.328;2023-03-25T19:15:30;15.25;;;3.20;;
70549;SDS011;58101;48.658;2.328;2023-03-25T19:18:02;18.95;;;4.13;;
70549;SDS011;58101;48.658;2.328;2023-03-25T19:20:30;18.38;;;3.55;;
70549;SDS011;58101;48.658;2.328;2023-03-25T19:22:58;13.18;;;3.65;;
70549;SDS011;58101;48.658;2.328;2023-03-25T19:28:00;16.98;;;3.33;;
70549;SDS011;58101;48.658;2.328;2023-03-25T19:30:25;19.35;;;3.72;;
70549;SDS011;58101;48.658;2.328;2023-03-25T19:32:52;29.70;;;9.05;;
70549;SDS011;58101;48.658;2.328;2023-03-25T19:35:18;17.00;;;3.63;;
70549;SDS011;58101;48.658;2.328;2023-03-25T19:37:45;20.95;;;6.55;;
70549;SDS011;58101;48.658;2.328;2023-03-25T19:43:29;26.00;;;7.72;;
70549;SDS011;58101;48.658;2.328;2023-03-25T19:45:55;20.13;;;3.75;;
70549;SDS011;58101;48.658;2.328;2023-03-25T19:48:24;18.48;;;3.97;;
70549;SDS011;58101;48.658;2.328;2023-03-25T19:50:53;22.35;;;5.60;;
70549;SDS011;58101;48.658;2.328;2023-03-25T19:53:19;21.35;;;4.57;;
70549;SDS011;58101;48.658;2.328;2023-03-25T19:55:45;20.48;;;4.65;;
70549;SDS011;58101;48.658;2.328;2023-03-25T19:58:10;20.23;;;4.25;;
70549;SDS011;58101;48.658;2.328;2023-03-25T20:00:36;19.73;;;3.30;;
70549;SDS011;58101;48.658;2.328;2023-03-25T20:03:02;19.38;;;3.97;;
70549;SDS011;58101;48.658;2.328;2023-03-25T20:05:29;21.50;;;3.80;;
70549;SDS011;58101;48.658;2.328;2023-03-25T20:07:56;18.98;;;4.28;;
70549;SDS011;58101;48.658;2.328;2023-03-25T20:10:23;19.40;;;3.50;;
70549;SDS011;58101;48.658;2.328;2023-03-25T20:12:51;21.80;;;3.50;;
70549;SDS011;58101;48.658;2.328;2023-03-25T20:15:18;18.52;;;3.47;;
70549;SDS011;58101;48.658;2.328;2023-03-25T20:20:12;18.25;;;3.28;;
70549;SDS011;58101;48.658;2.328;2023-03-25T20:22:38;13.70;;;2.90;;
70549;SDS011;58101;48.658;2.328;2023-03-25T20:25:05;15.38;;;3.97;;
70549;SDS011;58101;48.658;2.328;2023-03-25T20:27:31;17.17;;;2.70;;
70549;SDS011;58101;48.658;2.328;2023-03-25T20:29:58;17.25;;;3.58;;
70549;SDS011;58101;48.658;2.328;2023-03-25T20:32:23;16.52;;;3.03;;
70549;SDS011;58101;48.658;2.328;2023-03-25T20:34:49;16.23;;;3.22;;
70549;SDS011;58101;48.658;2.328;2023-03-25T20:37:15;21.13;;;3.35;;
70549;SDS011;58101;48.658;2.328;2023-03-25T20:39:42;15.77;;;2.53;;
70549;SDS011;58101;48.658;2.328;2023-03-25T20:42:08;18.63;;;3.20;;
70549;SDS011;58101;48.658;2.328;2023-03-25T20:44:35;20.25;;;3.28;;
70549;SDS011;58101;48.658;2.328;2023-03-25T20:47:01;17.23;;;3.10;;
70549;SDS011;58101;48.658;2.328;2023-03-25T20:49:27;18.25;;;4.07;;
70549;SDS011;58101;48.658;2.328;2023-03-25T20:51:53;16.10;;;3.03;;
70549;SDS011;58101;48.658;2.328;2023-03-25T20:54:20;20.52;;;3.85;;
70549;SDS011;58101;48.658;2.328;2023-03-25T20:56:49;20.13;;;4.43;;
70549;SDS011;58101;48.658;2.328;2023-03-25T20:59:15;18.50;;;3.38;;
70549;SDS011;58101;48.658;2.328;2023-03-25T21:01:43;17.60;;;3.10;;
70549;SDS011;58101;48.658;2.328;2023-03-25T21:04:09;14.65;;;2.58;;
70549;SDS011;58101;48.658;2.328;2023-03-25T21:06:37;15.15;;;2.65;;
70549;SDS011;58101;48.658;2.328;2023-03-25T21:09:04;15.82;;;3.55;;
70549;SDS011;58101;48.658;2.328;2023-03-25T21:11:30;13.75;;;2.45;;
70549;SDS011;58101;48.658;2.328;2023-03-25T21:13:56;21.08;;;3.25;;
70549;SDS011;58101;48.658;2.328;2023-03-25T21:16:22;18.42;;;2.60;;
70549;SDS011;58101;48.658;2.328;2023-03-25T21:18:48;16.02;;;2.80;;
70549;SDS011;58101;48.658;2.328;2023-03-25T21:21:14;13.57;;;2.90;;
70549;SDS011;58101;48.658;2.328;2023-03-25T21:23:40;20.02;;;2.85;;
70549;SDS011;58101;48.658;2.328;2023-03-25T21:26:08;16.35;;;2.33;;
70549;SDS011;58101;48.658;2.328;2023-03-25T21:31:03;15.30;;;3.00;;
70549;SDS011;58101;48.658;2.328;2023-03-25T21:33:31;17.67;;;2.95;;
70549;SDS011;58101;48.658;2.328;2023-03-25T21:35:58;17.15;;;3.03;;
70549;SDS011;58101;48.658;2.328;2023-03-25T21:38:25;21.48;;;3.10;;
70549;SDS011;58101;48.658;2.328;2023-03-25T21:40:56;18.92;;;2.83;;
70549;SDS011;58101;48.658;2.328;2023-03-25T21:43:23;17.13;;;2.50;;
70549;SDS011;58101;48.658;2.328;2023-03-25T21:45:49;13.07;;;2.40;;
70549;SDS011;58101;48.658;2.328;2023-03-25T21:48:16;20.73;;;2.80;;
70549;SDS011;58101;48.658;2.328;2023-03-25T21:50:43;17.33;;;2.45;;
70549;SDS011;58101;48.658;2.328;2023-03-25T21:53:11;11.77;;;2.10;;
70549;SDS011;58101;48.658;2.328;2023-03-25T21:55:42;17.13;;;2.60;;
70549;SDS011;58101;48.658;2.328;2023-03-25T21:58:24;12.43;;;2.35;;
70549;SDS011;58101;48.658;2.328;2023-03-25T22:00:57;15.57;;;2.65;;
70549;SDS011;58101;48.658;2.328;2023-03-25T22:03:34;12.27;;;2.03;;
70549;SDS011;58101;48.658;2.328;2023-03-25T22:06:11;11.68;;;1.98;;
70549;SDS011;58101;48.658;2.328;2023-03-25T22:08:39;12.23;;;2.00;;
70549;SDS011;58101;48.658;2.328;2023-03-25T22:13:32;16.08;;;2.40;;
70549;SDS011;58101;48.658;2.328;2023-03-25T22:15:58;13.95;;;2.60;;
70549;SDS011;58101;48.658;2.328;2023-03-25T22:18:24;14.25;;;2.17;;
70549;SDS011;58101;48.658;2.328;2023-03-25T22:20:50;14.43;;;2.20;;